METAR Data
IDs: Format: Raw Decoded Include TAF

Data at: 0216 UTC 26 Apr 2019

KERV 260155Z AUTO 00000KT 10SM CLR 22/13 A3001 RMK AO2 T02200125
KERV 260135Z AUTO 00000KT 10SM CLR 23/13 A2999 RMK AO2 T02330125
KERV 260115Z AUTO 00000KT 10SM CLR 25/12 A2998 RMK AO2 T02470122
KERV 260055Z AUTO 00000KT 10SM CLR 26/12 A2998 RMK AO2 T02550116
KERV 260035Z AUTO 00000KT 10SM CLR 26/10 A2997 RMK AO2 T02620102
KERV 260015Z AUTO 01007KT 10SM CLR 28/10 A2996 RMK AO2 T02750095
KERV 252355Z AUTO 36005KT 10SM CLR 28/10 A2995 RMK AO2 T02750096 10290 20261
KERV 252335Z AUTO 35006G09KT 10SM CLR 28/09 A2995 RMK AO2 T02800092
KERV 252315Z AUTO 35008KT 10SM CLR 28/09 A2994 RMK AO2 T02820086
KERV 252255Z AUTO 34010G17KT 10SM CLR 28/08 A2993 RMK AO2 T02840075
KERV 252235Z AUTO 35011G18KT 10SM CLR 29/09 A2993 RMK AO2 T02900086

KT82 260155Z AUTO 00000KT 10SM CLR 20/14 A3001 RMK AO2 T02000136
KT82 260135Z AUTO 03003KT 10SM CLR 20/13 A2999 RMK AO2 T02010131
KT82 260115Z AUTO 01004KT 10SM CLR 21/13 A2999 RMK AO2 T02070126
KT82 260055Z AUTO 01004KT 10SM CLR 23/12 A2998 RMK AO2 T02300118
KT82 260035Z AUTO 01006KT 10SM CLR 24/11 A2997 RMK AO2 T02440110
KT82 260015Z AUTO 36008KT 10SM CLR 25/10 A2997 RMK AO2 T02530104
KT82 252355Z AUTO 36009G15KT 10SM CLR 26/10 A2997 RMK AO2 T02620095 10280 20254
KT82 252335Z AUTO 01009KT 10SM CLR 27/09 A2996 RMK AO2 T02650093
KT82 252315Z AUTO 01009KT 10SM CLR 27/09 A2995 RMK AO2 T02700094
KT82 252255Z AUTO 35010G15KT 10SM CLR 27/10 A2995 RMK AO2 T02720095
KT82 252235Z AUTO 35013G16KT 10SM CLR 27/09 A2994 RMK AO2 T02730086

KJCT 260151Z AUTO 02005KT 10SM CLR 22/12 A3001 RMK AO2 SLP135 T02170122
KJCT 260051Z AUTO 03006KT 10SM CLR 26/12 A2998 RMK AO2 SLP125 T02560122
KJCT 252351Z AUTO 01009KT 10SM CLR 28/11 A2996 RMK AO2 SLP117 T02830106 10300 20267 53006
KJCT 252251Z AUTO 36008KT 10SM CLR 29/10 A2995 RMK AO2 SLP111 T02940100

K5C1 260155Z AUTO 00000KT 10SM CLR 19/12 A3001 RMK AO1
K5C1 260135Z AUTO 00000KT 10SM CLR 20/12 A2999 RMK AO1
K5C1 260115Z AUTO 00000KT 10SM CLR 23/11 A2998 RMK AO1
K5C1 260055Z AUTO 00000KT 10SM CLR 25/10 A2997 RMK AO1
K5C1 260035Z AUTO 01005KT 10SM CLR 26/09 A2996 RMK AO1
K5C1 260015Z AUTO 01005KT 10SM CLR 26/09 A2996 RMK AO1
K5C1 252355Z AUTO 02009KT 10SM CLR 27/09 A2995 RMK AO1
K5C1 252335Z AUTO 01009G14KT 10SM CLR 27/08 A2994 RMK AO1
K5C1 252315Z AUTO 36010G16KT 10SM CLR 28/08 A2994 RMK AO1
K5C1 252255Z AUTO 03009KT 10SM CLR 28/09 A2993 RMK AO1
K5C1 252235Z AUTO 36006KT 10SM CLR 28/09 A2993 RMK AO1

KHDO 260151Z AUTO 04006KT 10SM CLR 23/12 A2996 RMK AO2 SLP133 T02280122
KHDO 260051Z AUTO 04005KT 10SM CLR 27/12 A2993 RMK AO2 SLP123 T02670122
KHDO 252351Z AUTO 02006KT 10SM CLR 30/13 A2991 RMK AO2 SLP115 T03000133 10322 20267 53005
KHDO 252251Z AUTO 03008KT 10SM CLR 31/12 A2989 RMK AO2 SLP108 T03110117

KUVA 260155Z AUTO 05004KT 10SM CLR 23/15 A2996 RMK AO2 T02330147
KUVA 260135Z AUTO 09005KT 10SM CLR 25/14 A2995 RMK AO2 T02470142
KUVA 260115Z AUTO 07003KT 10SM CLR 27/14 A2994 RMK AO2 T02660140
KUVA 260055Z AUTO 07003KT 10SM CLR 28/13 A2994 RMK AO2 T02790134
KUVA 260035Z AUTO 04003KT 10SM CLR 28/13 A2993 RMK AO2 T02810134
KUVA 260015Z AUTO 02004KT 10SM CLR 29/12 A2992 RMK AO2 T02880119
KUVA 252355Z AUTO 02005KT 10SM CLR 30/12 A2992 RMK AO2 T02960119 10308 20257
KUVA 252335Z AUTO 02008KT 10SM CLR 30/11 A2991 RMK AO2 T03000113
KUVA 252315Z AUTO 03007KT 10SM CLR 30/11 A2991 RMK AO2 T03020111
KUVA 252255Z AUTO 03007KT 10SM CLR 31/12 A2990 RMK AO2 T03070122
KUVA 252235Z AUTO 36006KT 10SM CLR 31/11 A2990 RMK AO2 T03070110

KSAT 260151Z 00000KT 10SM FEW250 25/11 A2997 RMK AO2 SLP132 T02500106
KSAT 260051Z 36007KT 10SM FEW250 27/10 A2994 RMK AO2 SLP121 T02720100
KSAT 252351Z 36010KT 10SM FEW075 29/09 A2991 RMK AO2 SLP112 T02940094 10306 20267 53007
KSAT 252251Z 35012G19KT 10SM FEW075 31/12 A2989 RMK AO2 SLP106 T03060117

KSSF 260153Z 02004KT 10SM CLR 24/11 A2993 RMK AO2 SLP128 T02390106
KSSF 260053Z 02006KT 10SM CLR 29/08 A2990 RMK AO2 SLP116 T02890083
KSSF 252353Z 35009KT 10SM CLR 31/07 A2987 RMK AO2 SLP105 T03110067 10322 20272 53004
KSSF 252253Z 36010G16KT 10SM CLR 32/08 A2985 RMK AO2 SLP099 T03220083